Time;durP1;ratioP1;P1;durP2;ratioP2;P2;SDS_P1;SDS_P2;PMS_P1;PMS_P2;Temp;Humidity;BMP_temperature;BMP_pressure;BME280_temperature;BME280_humidity;BME280_pressure;Samples;Min_cycle;Max_cycle;Signal;HPM_P1;HPM_P2
2021/06/23 00:01:09;;;;;;;40.10;22.70;;;15.10;99.90;;;;;;5030219;28;20441;-74
2021/06/23 00:03:35;;;;;;;32.75;22.90;;;15.20;99.90;;;;;;5030027;28;20383;-76
2021/06/23 00:06:00;;;;;;;34.83;23.23;;;15.10;99.90;;;;;;5043257;28;20401;-74
2021/06/23 00:08:26;;;;;;;36.70;22.98;;;15.00;99.90;;;;;;5047468;28;20386;-75
2021/06/23 00:10:52;;;;;;;34.50;24.10;;;15.10;99.90;;;;;;5030976;28;20387;-74
2021/06/23 00:13:21;;;;;;;38.70;24.98;;;15.00;99.90;;;;;;5049699;28;20461;-75
2021/06/23 00:15:47;;;;;;;43.47;24.55;;;14.90;99.90;;;;;;5051496;28;20473;-74
2021/06/23 00:18:13;;;;;;;38.50;22.90;;;15.00;99.90;;;;;;5053932;28;20930;-75
2021/06/23 00:20:39;;;;;;;32.22;23.30;;;15.00;99.90;;;;;;5035661;28;20411;-75
2021/06/23 00:23:05;;;;;;;39.07;22.60;;;15.00;99.90;;;;;;5033851;28;20894;-75
2021/06/23 00:25:31;;;;;;;35.05;22.85;;;15.00;99.90;;;;;;5033999;28;20402;-75
2021/06/23 00:27:57;;;;;;;33.33;23.10;;;15.00;99.90;;;;;;5033784;28;20391;-74
2021/06/23 00:30:23;;;;;;;35.13;23.13;;;14.90;99.90;;;;;;5048211;28;20458;-76
2021/06/23 00:32:52;;;;;;;33.88;21.73;;;14.90;99.90;;;;;;5052706;28;20378;-74
2021/06/23 00:35:18;;;;;;;36.30;21.95;;;14.90;99.90;;;;;;5053682;28;20870;-75
2021/06/23 00:37:44;;;;;;;40.33;24.57;;;14.80;99.90;;;;;;5053680;28;20464;-75
2021/06/23 00:40:10;;;;;;;34.13;23.20;;;14.80;99.90;;;;;;5053688;28;20384;-75
2021/06/23 00:42:36;;;;;;;31.83;22.48;;;14.80;99.90;;;;;;5048955;28;20950;-74
2021/06/23 00:45:05;;;;;;;34.43;21.90;;;14.90;99.90;;;;;;5033392;28;20487;-74
2021/06/23 00:47:30;;;;;;;37.50;23.38;;;14.90;99.90;;;;;;5033600;28;20391;-73
2021/06/23 00:49:58;;;;;;;32.95;21.63;;;15.00;99.90;;;;;;5042987;28;20408;-75
2021/06/23 00:52:23;;;;;;;30.85;21.38;;;15.00;99.90;;;;;;5052170;28;20464;-75
2021/06/23 00:54:51;;;;;;;31.50;21.77;;;15.10;99.20;;;;;;5033405;28;20965;-75
2021/06/23 00:57:18;;;;;;;30.70;21.13;;;15.10;99.30;;;;;;5033738;28;20441;-75
2021/06/23 00:59:46;;;;;;;34.90;21.65;;;15.10;99.20;;;;;;5041845;28;20384;-77
2021/06/23 01:02:16;;;;;;;35.38;22.23;;;15.00;98.50;;;;;;5043064;28;20506;-75
2021/06/23 01:04:42;;;;;;;33.58;21.95;;;14.90;99.90;;;;;;5047040;28;20389;-76
2021/06/23 01:07:08;;;;;;;34.67;22.00;;;14.90;99.90;;;;;;5063434;28;21000;-76
2021/06/23 01:09:34;;;;;;;33.95;22.30;;;15.00;99.90;;;;;;5060088;28;20381;-74
2021/06/23 01:12:19;;;;;;;31.10;21.45;;;15.00;99.70;;;;;;5043069;28;20656;-76
2021/06/23 01:14:46;;;;;;;33.72;21.65;;;15.00;98.30;;;;;;5032999;28;20399;-74
2021/06/23 01:17:13;;;;;;;33.43;22.77;;;15.00;99.90;;;;;;5033380;28;20891;-76
2021/06/23 01:19:42;;;;;;;33.17;22.13;;;15.00;99.90;;;;;;5033096;28;20860;-76
2021/06/23 01:22:09;;;;;;;33.40;21.80;;;14.90;99.90;;;;;;5033055;28;20431;-76
2021/06/23 01:24:34;;;;;;;42.53;22.90;;;14.90;99.90;;;;;;5033119;28;20402;-76
2021/06/23 01:27:00;;;;;;;35.08;22.88;;;14.90;99.90;;;;;;5031028;28;20948;-76
2021/06/23 01:29:25;;;;;;;36.23;24.00;;;14.90;99.90;;;;;;5033556;28;20394;-74
2021/06/23 01:31:51;;;;;;;31.20;22.40;;;14.90;99.90;;;;;;5037155;28;20415;-75
2021/06/23 01:34:17;;;;;;;39.67;22.60;;;14.80;99.90;;;;;;5050930;28;20395;-75
2021/06/23 01:36:42;;;;;;;37.37;22.00;;;14.80;99.90;;;;;;5046540;28;20449;-76
2021/06/23 01:39:08;;;;;;;39.30;22.63;;;14.90;99.90;;;;;;5045958;28;20441;-76
2021/06/23 01:41:34;;;;;;;39.17;21.85;;;15.00;99.00;;;;;;5043344;28;20470;-75
2021/06/23 01:44:01;;;;;;;34.47;21.63;;;14.90;99.90;;;;;;5058462;28;20462;-75
2021/06/23 01:46:27;;;;;;;30.30;20.70;;;14.90;98.90;;;;;;5067078;28;20405;-75
2021/06/23 01:48:55;;;;;;;31.40;21.03;;;15.00;99.90;;;;;;5059046;28;20382;-73
2021/06/23 01:51:20;;;;;;;35.65;21.70;;;15.00;98.50;;;;;;5067810;28;20382;-74
2021/06/23 01:53:46;;;;;;;30.10;20.90;;;15.00;99.50;;;;;;5061206;28;20394;-75
2021/06/23 01:56:12;;;;;;;34.07;20.27;;;14.90;99.90;;;;;;5054893;28;20398;-74
2021/06/23 01:58:41;;;;;;;34.67;21.17;;;15.00;99.40;;;;;;5031432;28;20467;-73
2021/06/23 02:01:10;;;;;;;31.10;20.38;;;15.00;97.00;;;;;;5032158;28;20460;-73
2021/06/23 02:03:56;;;;;;;34.88;18.63;;;15.00;95.10;;;;;;5041835;28;20610;-73
2021/06/23 02:06:40;;;;;;;31.17;18.73;;;14.90;92.60;;;;;;5052584;28;20421;-75
2021/06/23 02:09:30;;;;;;;32.50;20.27;;;14.90;95.10;;;;;;5054555;28;20472;-75
2021/06/23 02:12:25;;;;;;;36.88;18.73;;;14.80;94.50;;;;;;5044207;28;20426;-75
2021/06/23 02:14:57;;;;;;;35.50;19.00;;;14.70;93.70;;;;;;5028293;28;20756;-75
2021/06/23 02:17:25;;;;;;;28.98;17.73;;;14.70;94.40;;;;;;5042993;28;20766;-74
2021/06/23 02:19:51;;;;;;;28.83;18.45;;;14.60;93.40;;;;;;5049814;28;20421;-73
2021/06/23 02:22:19;;;;;;;32.97;19.42;;;14.60;95.10;;;;;;5050862;28;20898;-73
2021/06/23 02:24:50;;;;;;;34.75;18.67;;;14.50;95.30;;;;;;5050552;28;20393;-77
2021/06/23 02:27:16;;;;;;;34.63;18.63;;;14.50;95.20;;;;;;5046742;28;20419;-76
2021/06/23 02:29:44;;;;;;;30.50;18.45;;;14.50;94.40;;;;;;5032864;28;20391;-77
2021/06/23 02:32:13;;;;;;;33.58;18.70;;;14.60;94.30;;;;;;5036326;28;20386;-77
2021/06/23 02:34:47;;;;;;;31.08;18.60;;;14.50;95.00;;;;;;5037576;28;20392;-77
2021/06/23 02:37:13;;;;;;;36.90;17.83;;;14.50;95.10;;;;;;5031876;28;20494;-76
2021/06/23 02:39:39;;;;;;;33.92;18.05;;;14.50;96.20;;;;;;5032071;28;20397;-78
2021/06/23 02:42:05;;;;;;;27.20;18.10;;;14.50;96.70;;;;;;5032856;28;20399;-76
2021/06/23 02:44:31;;;;;;;42.38;18.60;;;14.50;97.10;;;;;;5029464;28;20421;-76
2021/06/23 02:46:59;;;;;;;34.78;17.45;;;14.50;97.20;;;;;;5031424;28;20441;-76
2021/06/23 02:49:25;;;;;;;31.73;16.70;;;14.50;96.70;;;;;;5035247;28;20379;-76
2021/06/23 02:51:52;;;;;;;30.73;17.92;;;14.50;96.30;;;;;;5051124;28;20385;-76
2021/06/23 02:54:18;;;;;;;30.95;18.70;;;14.40;96.10;;;;;;5043159;28;20391;-76
2021/06/23 02:56:45;;;;;;;31.02;18.30;;;14.40;97.30;;;;;;5030796;28;20409;-76
2021/06/23 02:59:12;;;;;;;47.05;19.55;;;14.40;97.70;;;;;;5030954;28;20878;-77
2021/06/23 03:01:37;;;;;;;28.47;18.30;;;14.40;97.50;;;;;;5045399;28;20479;-77
2021/06/23 03:04:03;;;;;;;29.30;18.10;;;14.40;98.40;;;;;;5052413;28;20425;-77
2021/06/23 03:06:29;;;;;;;31.80;17.50;;;14.40;96.20;;;;;;5052668;28;20408;-78
2021/06/23 03:08:56;;;;;;;32.80;19.00;;;14.40;96.00;;;;;;5032982;28;20910;-77
2021/06/23 03:11:22;;;;;;;33.37;18.07;;;14.40;96.30;;;;;;5026502;28;20405;-76
2021/06/23 03:13:47;;;;;;;30.67;17.00;;;14.40;97.70;;;;;;5017295;28;20907;-77
2021/06/23 03:16:13;;;;;;;34.77;21.07;;;14.30;96.70;;;;;;5031357;28;20852;-76
2021/06/23 03:18:39;;;;;;;30.23;18.08;;;14.30;97.20;;;;;;5030666;28;20375;-77
2021/06/23 03:21:07;;;;;;;33.87;20.00;;;14.30;97.90;;;;;;5030435;28;20482;-76
2021/06/23 03:23:34;;;;;;;32.22;18.77;;;14.30;98.20;;;;;;5030295;28;20817;-76
2021/06/23 03:25:59;;;;;;;27.92;18.05;;;14.40;98.10;;;;;;5022547;28;20407;-76
2021/06/23 03:28:25;;;;;;;36.10;17.90;;;14.40;96.60;;;;;;5029466;28;20391;-76
2021/06/23 03:30:51;;;;;;;30.60;18.20;;;14.40;96.90;;;;;;5017451;28;20385;-76
2021/06/23 03:33:17;;;;;;;36.22;18.80;;;14.40;96.90;;;;;;5020686;28;20401;-75
2021/06/23 03:35:43;;;;;;;29.42;18.17;;;14.40;97.40;;;;;;5030313;28;20578;-76
2021/06/23 03:38:09;;;;;;;31.20;18.27;;;14.40;96.60;;;;;;5016090;28;20389;-76
2021/06/23 03:40:34;;;;;;;26.60;17.63;;;14.40;96.40;;;;;;5010568;28;20415;-76
2021/06/23 03:43:00;;;;;;;32.23;18.70;;;14.40;95.50;;;;;;5010644;28;20386;-76
2021/06/23 03:45:25;;;;;;;30.52;17.42;;;14.40;95.80;;;;;;5010636;28;20490;-76
2021/06/23 03:47:51;;;;;;;35.53;18.35;;;14.40;95.10;;;;;;5011742;28;20396;-77
2021/06/23 03:50:17;;;;;;;34.00;18.33;;;14.40;94.90;;;;;;5024677;28;20378;-77
2021/06/23 03:52:43;;;;;;;29.58;18.10;;;14.40;95.40;;;;;;5034951;28;20471;-77
2021/06/23 03:55:19;;;;;;;34.08;19.45;;;14.50;94.30;;;;;;5034333;28;20440;-77
2021/06/23 03:57:48;;;;;;;35.63;19.50;;;14.40;95.80;;;;;;5027980;28;20396;-77
2021/06/23 04:00:13;;;;;;;32.93;18.60;;;14.50;94.40;;;;;;5015807;28;20529;-78
2021/06/23 04:02:39;;;;;;;30.77;17.75;;;14.50;95.10;;;;;;5017250;28;20400;-77
2021/06/23 04:05:05;;;;;;;33.03;16.53;;;14.60;93.70;;;;;;5019269;28;20424;-77
2021/06/23 04:07:31;;;;;;;30.50;17.65;;;14.60;92.50;;;;;;5017688;28;20563;-78
2021/06/23 04:09:56;;;;;;;31.15;17.05;;;14.60;92.80;;;;;;5027786;28;20948;-78
2021/06/23 04:12:22;;;;;;;31.13;17.50;;;14.60;93.10;;;;;;5017814;28;20404;-78
2021/06/23 04:14:47;;;;;;;33.53;17.87;;;14.60;93.20;;;;;;5052944;28;20398;-78
2021/06/23 04:17:13;;;;;;;30.23;17.30;;;14.70;93.00;;;;;;5028169;28;20436;-77
2021/06/23 04:19:38;;;;;;;29.73;17.10;;;14.70;90.80;;;;;;5015989;28;20388;-77
2021/06/23 04:22:04;;;;;;;32.92;16.90;;;14.70;90.10;;;;;;5025045;28;20888;-78
2021/06/23 04:24:30;;;;;;;28.42;16.95;;;14.70;91.30;;;;;;5027798;28;20395;-77
2021/06/23 04:26:55;;;;;;;33.50;17.63;;;14.60;91.40;;;;;;5032058;28;20537;-77
2021/06/23 04:29:21;;;;;;;24.93;16.07;;;14.60;91.00;;;;;;5016900;28;20396;-77
2021/06/23 04:31:46;;;;;;;27.00;16.70;;;14.70;90.30;;;;;;5021657;28;20483;-77
2021/06/23 04:34:13;;;;;;;31.10;17.30;;;14.70;88.60;;;;;;5023117;28;20481;-77
2021/06/23 04:36:38;;;;;;;28.17;16.80;;;14.70;89.50;;;;;;5024794;28;20392;-77
2021/06/23 04:39:04;;;;;;;26.20;17.00;;;14.70;90.00;;;;;;5024146;28;20424;-77
2021/06/23 04:41:30;;;;;;;30.10;17.80;;;14.70;90.10;;;;;;5021540;28;20387;-77
2021/06/23 04:43:55;;;;;;;32.08;17.63;;;14.70;89.50;;;;;;5021979;28;20412;-77
2021/06/23 04:46:21;;;;;;;31.00;18.10;;;14.70;88.90;;;;;;5014212;28;20435;-77
2021/06/23 04:48:46;;;;;;;29.30;16.33;;;14.70;89.20;;;;;;5039190;28;20391;-77
2021/06/23 04:51:14;;;;;;;28.53;16.53;;;14.70;88.50;;;;;;5042025;28;20417;-78
2021/06/23 04:53:39;;;;;;;24.23;16.25;;;14.80;88.90;;;;;;5038918;28;20421;-77
2021/06/23 04:56:05;;;;;;;33.65;16.27;;;14.90;87.30;;;;;;5052045;28;20387;-77
2021/06/23 04:58:31;;;;;;;25.40;16.48;;;14.90;86.30;;;;;;5042276;28;20776;-77
2021/06/23 05:00:57;;;;;;;29.50;16.85;;;14.80;85.60;;;;;;5014213;28;20539;-77
2021/06/23 05:03:22;;;;;;;31.50;17.50;;;14.90;85.10;;;;;;5013496;28;20936;-77
2021/06/23 05:05:48;;;;;;;27.70;17.20;;;14.90;86.40;;;;;;5013354;28;20419;-75
2021/06/23 05:08:14;;;;;;;30.67;16.13;;;15.00;86.60;;;;;;5023005;28;20398;-76
2021/06/23 05:10:40;;;;;;;26.05;16.35;;;15.10;82.90;;;;;;5028195;28;20394;-76
2021/06/23 05:13:05;;;;;;;32.33;15.48;;;15.10;81.70;;;;;;5032424;28;20391;-76
2021/06/23 05:15:31;;;;;;;29.65;15.55;;;15.00;80.70;;;;;;5032152;28;20852;-75
2021/06/23 05:17:57;;;;;;;30.55;15.93;;;15.00;81.10;;;;;;5032575;28;20448;-75
2021/06/23 05:20:23;;;;;;;32.55;16.05;;;14.90;83.10;;;;;;5032516;28;20541;-75
2021/06/23 05:22:50;;;;;;;28.55;16.20;;;15.00;82.60;;;;;;5018428;28;20812;-75
2021/06/23 05:25:17;;;;;;;32.13;15.75;;;15.10;83.00;;;;;;5031001;28;20402;-78
2021/06/23 05:27:43;;;;;;;28.00;16.50;;;15.20;80.10;;;;;;5027226;28;20397;-78
2021/06/23 05:30:09;;;;;;;27.08;15.95;;;15.30;79.10;;;;;;5022223;28;20395;-77
2021/06/23 05:32:35;;;;;;;24.70;14.80;;;15.40;78.80;;;;;;5018437;28;20409;-76
2021/06/23 05:35:02;;;;;;;30.25;15.60;;;15.50;74.30;;;;;;5021981;28;20389;-77
2021/06/23 05:37:27;;;;;;;31.10;16.77;;;15.40;76.80;;;;;;5028622;28;20395;-78
2021/06/23 05:39:54;;;;;;;26.80;15.80;;;15.40;75.30;;;;;;5014682;28;20424;-76
2021/06/23 05:42:19;;;;;;;31.40;15.93;;;15.30;75.10;;;;;;5024640;28;20458;-76
2021/06/23 05:44:45;;;;;;;29.63;16.05;;;15.30;78.60;;;;;;5030871;28;21117;-77
2021/06/23 05:47:11;;;;;;;31.33;16.20;;;15.40;75.90;;;;;;5020943;28;20495;-75
2021/06/23 05:49:36;;;;;;;32.95;16.58;;;15.50;74.10;;;;;;5018943;28;20387;-74
2021/06/23 05:52:03;;;;;;;25.40;15.05;;;15.40;75.30;;;;;;5028763;28;20394;-75
2021/06/23 05:54:30;;;;;;;29.60;15.45;;;15.40;74.00;;;;;;5016264;28;20397;-76
2021/06/23 05:56:55;;;;;;;31.67;15.45;;;15.50;74.50;;;;;;5028915;28;20428;-77
2021/06/23 05:59:21;;;;;;;26.23;14.60;;;15.50;74.80;;;;;;5025332;28;20758;-77
2021/06/23 06:01:46;;;;;;;30.20;16.03;;;15.50;73.00;;;;;;5017767;28;20420;-75
2021/06/23 06:04:12;;;;;;;29.00;15.07;;;15.40;73.50;;;;;;5032373;28;20827;-75
2021/06/23 06:06:39;;;;;;;24.60;15.30;;;15.60;73.20;;;;;;5024074;28;20997;-76
2021/06/23 06:09:04;;;;;;;30.23;15.50;;;15.70;72.30;;;;;;5024761;28;20382;-78
2021/06/23 06:11:30;;;;;;;27.60;15.13;;;15.70;72.50;;;;;;5028028;28;20428;-77
2021/06/23 06:13:56;;;;;;;27.30;15.10;;;15.70;70.60;;;;;;5012627;28;20392;-74
2021/06/23 06:16:22;;;;;;;27.75;15.43;;;15.60;70.40;;;;;;5021433;28;20428;-75
2021/06/23 06:18:47;;;;;;;25.45;15.20;;;15.70;70.90;;;;;;5017771;28;20788;-75
2021/06/23 06:21:14;;;;;;;27.00;15.23;;;15.70;70.10;;;;;;5014214;28;20404;-75
2021/06/23 06:23:40;;;;;;;27.30;15.60;;;15.70;70.10;;;;;;5009212;28;20403;-73
2021/06/23 06:26:06;;;;;;;25.08;14.93;;;15.60;71.00;;;;;;5009466;28;20500;-75
2021/06/23 06:28:32;;;;;;;30.60;15.50;;;15.60;71.70;;;;;;5011204;28;20400;-75
2021/06/23 06:30:57;;;;;;;24.93;14.93;;;15.40;72.10;;;;;;5011814;28;20465;-75
2021/06/23 06:33:23;;;;;;;35.77;15.93;;;15.50;73.00;;;;;;5022493;28;20486;-75
2021/06/23 06:35:49;;;;;;;30.90;16.00;;;15.40;73.40;;;;;;5031564;28;20923;-75
2021/06/23 06:38:14;;;;;;;23.67;16.00;;;15.40;73.50;;;;;;5031500;28;20872;-76
2021/06/23 06:40:40;;;;;;;36.35;16.38;;;15.50;72.70;;;;;;5032054;28;20379;-75
2021/06/23 06:43:16;;;;;;;26.48;15.70;;;15.60;72.30;;;;;;5033108;28;20383;-75
2021/06/23 06:45:42;;;;;;;32.38;15.80;;;15.70;69.80;;;;;;5044869;28;20410;-75
2021/06/23 06:48:08;;;;;;;174.10;100.70;;;15.80;69.50;;;;;;5044998;28;20383;-76
2021/06/23 06:50:34;;;;;;;55.55;30.80;;;16.10;71.10;;;;;;5025912;28;20399;-74
2021/06/23 06:52:59;;;;;;;27.08;15.45;;;16.30;63.70;;;;;;5011696;28;20833;-74
2021/06/23 06:55:25;;;;;;;35.22;18.08;;;16.50;61.80;;;;;;5011890;28;20385;-74
2021/06/23 06:57:52;;;;;;;53.57;30.97;;;16.70;61.80;;;;;;5013475;28;20408;-75
2021/06/23 07:00:19;;;;;;;21.97;14.13;;;16.90;59.50;;;;;;5012338;28;20877;-75
2021/06/23 07:02:45;;;;;;;29.17;15.52;;;17.00;55.10;;;;;;5040243;28;20458;-76
2021/06/23 07:05:12;;;;;;;29.50;14.77;;;17.00;55.80;;;;;;5038602;28;20464;-75
2021/06/23 07:07:37;;;;;;;42.38;21.35;;;17.10;57.80;;;;;;5039416;28;20458;-76
2021/06/23 07:10:04;;;;;;;27.15;15.80;;;17.30;59.00;;;;;;5026161;28;20888;-77
2021/06/23 07:12:30;;;;;;;35.13;20.00;;;17.50;56.30;;;;;;5025922;28;20404;-76
2021/06/23 07:14:56;;;;;;;73.43;42.22;;;17.60;53.90;;;;;;5029437;28;20395;-76
2021/06/23 07:17:21;;;;;;;67.70;36.57;;;17.80;51.60;;;;;;5010690;28;20397;-77
2021/06/23 07:19:47;;;;;;;26.40;14.30;;;18.00;49.50;;;;;;5010649;28;20415;-76
2021/06/23 07:22:12;;;;;;;24.55;13.98;;;17.90;47.30;;;;;;5019083;28;20892;-77
2021/06/23 07:24:38;;;;;;;23.25;14.85;;;17.40;48.90;;;;;;5029680;28;20387;-76
2021/06/23 07:27:04;;;;;;;30.40;15.10;;;17.30;51.00;;;;;;5028146;28;20913;-76
2021/06/23 07:29:30;;;;;;;35.25;20.20;;;17.40;53.60;;;;;;5030452;28;20498;-76
2021/06/23 07:31:59;;;;;;;30.05;15.77;;;17.50;54.80;;;;;;5028961;28;20494;-77
2021/06/23 07:37:05;;;;;;;26.45;16.40;;;17.70;52.30;;;;;;5028087;28;20509;-76
2021/06/23 07:39:33;;;;;;;27.08;15.32;;;17.70;51.10;;;;;;5022623;28;20407;-76
2021/06/23 07:41:59;;;;;;;24.30;14.60;;;17.60;49.40;;;;;;5026714;28;20487;-77
2021/06/23 07:44:31;;;;;;;27.80;16.10;;;17.70;51.90;;;;;;5026493;28;20443;-77
2021/06/23 07:47:03;;;;;;;27.35;15.88;;;17.90;49.90;;;;;;5027284;28;20557;-77
2021/06/23 07:49:31;;;;;;;21.88;14.68;;;17.90;50.10;;;;;;5032517;28;20390;-76
2021/06/23 07:52:05;;;;;;;29.70;14.65;;;17.90;47.60;;;;;;5028812;28;20397;-76
2021/06/23 08:10:44;;;;;;;32.15;16.35;;;17.10;53.80;;;;;;5010219;28;20420;-74
2021/06/23 08:13:12;;;;;;;25.88;16.10;;;17.10;56.10;;;;;;5019856;28;20737;-74
2021/06/23 08:15:40;;;;;;;28.33;16.23;;;17.20;55.50;;;;;;5022516;28;20980;-75
2021/06/23 08:18:07;;;;;;;27.15;16.27;;;17.30;54.70;;;;;;5016684;28;20596;-75
2021/06/23 08:20:33;;;;;;;27.98;16.23;;;17.30;53.50;;;;;;5010959;28;20425;-75
2021/06/23 08:22:58;;;;;;;25.03;15.73;;;17.30;55.20;;;;;;5027347;28;20399;-75
2021/06/23 08:25:24;;;;;;;30.47;16.47;;;17.40;53.70;;;;;;5010426;28;20464;-75
2021/06/23 08:27:51;;;;;;;24.50;16.30;;;17.50;52.70;;;;;;5010531;28;20421;-74
2021/06/23 08:30:19;;;;;;;31.80;17.02;;;17.80;52.70;;;;;;5010254;28;20393;-74
2021/06/23 08:32:44;;;;;;;25.00;16.05;;;17.80;52.10;;;;;;5009717;28;20405;-74
2021/06/23 08:35:11;;;;;;;25.75;15.88;;;18.00;49.50;;;;;;5016313;28;20394;-74
2021/06/23 08:37:37;;;;;;;29.92;15.75;;;18.00;46.60;;;;;;5032529;28;20398;-74
2021/06/23 08:40:05;;;;;;;22.20;14.77;;;18.00;47.20;;;;;;5014190;28;20388;-73
2021/06/23 08:42:31;;;;;;;25.23;15.23;;;17.80;47.10;;;;;;5013747;28;20396;-74
2021/06/23 08:44:57;;;;;;;26.90;16.47;;;17.80;48.60;;;;;;5029989;28;20537;-75
2021/06/23 08:47:26;;;;;;;31.70;15.00;;;17.80;50.00;;;;;;5026379;28;20744;-75
2021/06/23 08:49:52;;;;;;;31.15;15.82;;;17.80;47.80;;;;;;5015390;28;20433;-75
2021/06/23 08:52:18;;;;;;;28.73;15.70;;;17.60;49.90;;;;;;5012391;28;20385;-74
2021/06/23 08:54:47;;;;;;;28.55;16.13;;;17.70;50.90;;;;;;5026017;28;20868;-74
2021/06/23 08:57:12;;;;;;;30.38;16.60;;;17.80;48.70;;;;;;5018423;28;20405;-74
2021/06/23 08:59:42;;;;;;;29.83;16.25;;;17.90;48.40;;;;;;5032369;28;20398;-75
2021/06/23 09:02:14;;;;;;;28.75;15.90;;;18.10;48.70;;;;;;5029361;28;20391;-74
2021/06/23 09:05:00;;;;;;;20.08;14.00;;;18.30;47.30;;;;;;5031502;28;20434;-74
2021/06/23 09:08:00;;;;;;;24.95;14.77;;;18.30;44.80;;;;;;5032682;28;20460;-74
2021/06/23 09:10:26;;;;;;;23.83;15.82;;;17.90;46.90;;;;;;5023193;28;20415;-74
2021/06/23 09:13:00;;;;;;;26.00;14.70;;;18.00;47.70;;;;;;5027591;28;20421;-73
2021/06/23 09:16:04;;;;;;;29.80;16.10;;;18.30;48.10;;;;;;5031055;28;20409;-71
2021/06/23 09:18:35;;;;;;;26.15;15.07;;;18.60;45.70;;;;;;5029225;28;20411;-74
2021/06/23 09:21:12;;;;;;;31.00;15.15;;;18.80;43.30;;;;;;5022019;28;20891;-75
2021/06/23 09:23:38;;;;;;;27.90;15.90;;;18.90;42.40;;;;;;5027987;28;20449;-74
2021/06/23 09:26:26;;;;;;;25.48;15.70;;;19.10;39.70;;;;;;5032309;28;20407;-73
2021/06/23 09:29:06;;;;;;;25.10;16.00;;;19.00;40.60;;;;;;5032787;28;20466;-73
2021/06/23 09:31:50;;;;;;;29.77;15.30;;;18.80;41.40;;;;;;5033487;28;20931;-74
2021/06/23 09:34:30;;;;;;;22.27;15.80;;;18.80;42.00;;;;;;5033845;28;20462;-74
2021/06/23 09:36:56;;;;;;;32.85;16.27;;;18.90;41.20;;;;;;5032951;28;20445;-73
2021/06/23 09:39:27;;;;;;;29.90;14.70;;;19.10;39.70;;;;;;5032530;28;20414;-73
2021/06/23 09:41:53;;;;;;;23.80;13.98;;;18.80;38.90;;;;;;5032437;28;20415;-73
2021/06/23 09:44:21;;;;;;;29.75;15.43;;;18.60;40.60;;;;;;5031366;28;20423;-73
2021/06/23 09:46:47;;;;;;;26.95;14.52;;;18.80;41.80;;;;;;5027117;28;20886;-74
2021/06/23 09:49:23;;;;;;;34.20;14.90;;;18.90;39.80;;;;;;5012683;28;20487;-74
2021/06/23 09:51:52;;;;;;;26.02;14.70;;;19.00;40.40;;;;;;5013290;28;20385;-75
2021/06/23 09:54:20;;;;;;;21.75;13.80;;;19.00;38.60;;;;;;5012325;28;20397;-74
2021/06/23 09:56:47;;;;;;;20.10;13.63;;;19.10;38.90;;;;;;5012662;28;20400;-74
2021/06/23 09:59:31;;;;;;;22.60;13.60;;;19.40;38.00;;;;;;5025324;28;20406;-74
2021/06/23 10:01:56;;;;;;;18.02;12.55;;;19.60;37.30;;;;;;5031357;28;20799;-76
2021/06/23 10:04:33;;;;;;;21.60;12.60;;;19.70;35.30;;;;;;5024518;28;20401;-76
2021/06/23 10:06:58;;;;;;;25.98;13.52;;;19.60;36.10;;;;;;5014027;28;20416;-75
2021/06/23 10:09:29;;;;;;;25.30;14.40;;;19.60;36.20;;;;;;5013822;28;20388;-76
2021/06/23 10:11:56;;;;;;;30.42;13.30;;;19.70;36.70;;;;;;5014730;28;20389;-76
2021/06/23 10:14:24;;;;;;;25.10;13.10;;;19.90;35.00;;;;;;5028706;28;20405;-75
2021/06/23 10:16:51;;;;;;;27.77;13.00;;;19.90;35.40;;;;;;5012764;28;20893;-74
2021/06/23 10:19:17;;;;;;;26.53;13.20;;;20.00;33.80;;;;;;5015247;28;20401;-76
2021/06/23 10:21:44;;;;;;;23.23;12.77;;;19.80;33.80;;;;;;5013665;28;20912;-75
2021/06/23 10:24:10;;;;;;;19.47;12.60;;;20.00;34.00;;;;;;5016024;28;20972;-75
2021/06/23 10:26:52;;;;;;;21.35;12.63;;;19.90;33.40;;;;;;5015012;28;20412;-75
2021/06/23 10:29:30;;;;;;;22.67;12.90;;;19.80;33.20;;;;;;5016576;28;20399;-76
2021/06/23 10:31:56;;;;;;;19.65;12.25;;;19.70;33.80;;;;;;5032060;28;20470;-75
2021/06/23 10:34:23;;;;;;;21.05;11.70;;;20.10;33.40;;;;;;5030992;28;20868;-74
2021/06/23 10:36:50;;;;;;;20.15;11.40;;;20.40;31.30;;;;;;5030521;28;20394;-74
2021/06/23 10:39:17;;;;;;;21.27;12.15;;;20.60;28.90;;;;;;5027196;28;20412;-75
2021/06/23 10:41:57;;;;;;;19.27;11.98;;;20.70;29.60;;;;;;5011688;28;20513;-75
2021/06/23 10:44:27;;;;;;;20.27;11.23;;;21.10;27.80;;;;;;5022015;28;20395;-75
2021/06/23 10:46:55;;;;;;;21.77;11.20;;;21.40;25.50;;;;;;5024642;28;20433;-75
2021/06/23 10:49:44;;;;;;;20.80;11.00;;;21.50;24.80;;;;;;5011483;28;20516;-75
2021/06/23 10:52:22;;;;;;;20.48;11.55;;;21.60;26.30;;;;;;5012116;28;20385;-75
2021/06/23 10:54:48;;;;;;;20.85;10.85;;;21.60;25.60;;;;;;5011298;28;20546;-75
2021/06/23 10:57:43;;;;;;;19.60;10.32;;;21.70;25.00;;;;;;5015811;28;20399;-75
2021/06/23 11:00:12;;;;;;;23.67;11.13;;;21.50;24.70;;;;;;5015665;28;20396;-76
2021/06/23 11:02:40;;;;;;;22.60;11.50;;;21.10;27.10;;;;;;5014496;28;20383;-76
2021/06/23 11:05:08;;;;;;;19.27;10.27;;;21.10;27.00;;;;;;5032714;28;20900;-73
2021/06/23 11:07:37;;;;;;;24.25;11.18;;;21.30;26.10;;;;;;5032126;28;20424;-75
2021/06/23 11:10:15;;;;;;;17.58;11.65;;;21.20;26.50;;;;;;5010154;28;20762;-79
2021/06/23 11:12:47;;;;;;;27.33;11.32;;;21.00;27.00;;;;;;5026717;28;20795;-78
2021/06/23 11:15:19;;;;;;;25.30;11.00;;;21.10;26.60;;;;;;5031168;28;20945;-77
2021/06/23 11:17:47;;;;;;;20.07;10.97;;;20.90;27.50;;;;;;5014714;28;20932;-75
2021/06/23 11:20:21;;;;;;;17.77;11.02;;;21.30;26.90;;;;;;5023692;28;20425;-75
2021/06/23 11:22:48;;;;;;;15.80;11.00;;;21.70;25.30;;;;;;5029193;28;20399;-74
2021/06/23 11:25:24;;;;;;;24.95;11.80;;;21.80;24.00;;;;;;5017051;28;20427;-76
2021/06/23 11:28:08;;;;;;;24.00;11.70;;;21.80;24.50;;;;;;5010854;28;20393;-75
2021/06/23 11:30:52;;;;;;;20.35;11.27;;;22.00;24.00;;;;;;5011196;28;20399;-75
2021/06/23 11:33:26;;;;;;;23.37;11.20;;;22.20;23.60;;;;;;5010772;28;20397;-75
2021/06/23 11:35:53;;;;;;;27.50;11.48;;;22.20;22.60;;;;;;5026894;28;20403;-75
2021/06/23 11:38:19;;;;;;;24.17;10.50;;;22.30;22.70;;;;;;5030330;28;20386;-74
2021/06/23 11:40:45;;;;;;;17.00;11.30;;;22.60;21.70;;;;;;5012872;28;20393;-75
2021/06/23 11:43:10;;;;;;;18.73;11.68;;;22.90;22.40;;;;;;5011587;28;20388;-75
2021/06/23 11:45:36;;;;;;;18.27;11.07;;;23.00;20.10;;;;;;5015200;28;20401;-75
2021/06/23 11:48:01;;;;;;;21.57;10.47;;;23.20;19.80;;;;;;5027037;28;20384;-75
2021/06/23 11:50:27;;;;;;;20.45;10.27;;;23.60;19.10;;;;;;5032560;28;20472;-75
2021/06/23 11:52:53;;;;;;;25.00;9.93;;;24.00;18.40;;;;;;5030631;28;20410;-75
2021/06/23 11:55:25;;;;;;;16.15;10.10;;;24.10;18.10;;;;;;5030300;28;20406;-76
2021/06/23 11:57:57;;;;;;;17.58;10.07;;;24.40;17.50;;;;;;5038758;28;20482;-74
2021/06/23 12:00:24;;;;;;;20.92;11.40;;;24.50;17.00;;;;;;5037222;28;20387;-74
2021/06/23 12:02:50;;;;;;;19.90;10.85;;;23.90;16.50;;;;;;5031769;28;20402;-75
2021/06/23 12:05:15;;;;;;;20.42;12.40;;;23.40;17.30;;;;;;5029086;28;20432;-75
2021/06/23 12:07:41;;;;;;;26.13;13.07;;;22.90;18.80;;;;;;5030792;28;20440;-74
2021/06/23 12:10:07;;;;;;;21.77;13.50;;;22.60;19.60;;;;;;5030744;28;20394;-74
2021/06/23 12:12:33;;;;;;;30.48;13.43;;;22.20;20.80;;;;;;5035877;28;20528;-74
2021/06/23 12:14:59;;;;;;;25.20;14.90;;;21.80;22.20;;;;;;5048379;28;20390;-74
2021/06/23 12:17:25;;;;;;;27.10;14.00;;;21.50;22.80;;;;;;5048400;28;20395;-74
2021/06/23 12:19:52;;;;;;;18.70;13.77;;;21.40;23.40;;;;;;5048794;28;20399;-74
2021/06/23 12:22:24;;;;;;;25.38;14.23;;;21.50;23.40;;;;;;5035621;28;20413;-73
2021/06/23 12:24:50;;;;;;;23.73;14.10;;;21.80;22.50;;;;;;5028030;28;20431;-76
2021/06/23 12:27:15;;;;;;;23.63;14.50;;;22.10;21.60;;;;;;5035139;28;20407;-75
2021/06/23 12:29:41;;;;;;;22.00;13.97;;;22.40;21.30;;;;;;5033512;28;20393;-73
2021/06/23 12:32:07;;;;;;;21.60;13.17;;;22.90;19.90;;;;;;5033009;28;20844;-75
2021/06/23 12:34:33;;;;;;;29.52;13.65;;;22.70;19.70;;;;;;5012507;28;20400;-74
2021/06/23 12:36:59;;;;;;;26.38;15.15;;;22.50;20.70;;;;;;5014152;28;20395;-76
2021/06/23 12:39:24;;;;;;;24.23;14.60;;;22.50;20.80;;;;;;5020432;28;20476;-75
2021/06/23 12:41:50;;;;;;;23.75;13.90;;;22.60;20.20;;;;;;5033186;28;20414;-74
2021/06/23 12:44:16;;;;;;;27.13;14.18;;;22.50;20.50;;;;;;5033873;28;20395;-77
2021/06/23 12:46:42;;;;;;;20.30;13.93;;;22.40;20.00;;;;;;5030207;28;20431;-76
2021/06/23 12:49:08;;;;;;;21.80;13.90;;;22.00;20.70;;;;;;5013158;28;20499;-75